Rebersburg, PA

7:28 PM EST on November 26, 2014 (GMT -0500)
Nittany | Change Station
CLOSE
Current Station
Personal Weather Station
Location: Howard, PA
Elevation: 922 ft
Nearby Weather Stations

Elev 922 ft 41.00 °N, 77.55 °W | Updated 16 seconds ago

Snow
Snow
30.7 °F
Feels Like 31 °F
N
0.0
Wind Variable Wind from ENE
Gusts 0.0 mph

Today
High -- | Low -- °F
--% Chance of Precip.
Yesterday
High -- | Low -- °F
Precip. -- in
7:09 AM 4:43 PM
Waxing Crescent, 24% visible
Pressure 29.97 in
Visibility 3.0 miles
Clouds Scattered Clouds 1900 ft
Overcast 3000 ft
Windchill 31 °F
Dew Point 30 °F
Humidity 96%
Rainfall 0.00 in
Snow Depth Not available.
UV 0 out of 12
Pollen .10 out of 12
Air Quality Not available.
Flu Activity Not available.
METAR KUNV 262353Z 03005KT 3SM -SN BR SCT019 OVC030 M01/M01 A2997

More Conditions Fewer Conditions

Pressure 29.97 in
Visibility 3.0 miles
Clouds Scattered Clouds 1900 ft
Overcast 3000 ft
Windchill 31 °F
Dew Point 30 °F
Humidity 96%
Rainfall 0.00 in
Snow Depth Not available.
UV 0 out of 12
Pollen .10 out of 12
Air Quality Not available.
Flu Activity Not available.
METAR KUNV 262353Z 03005KT 3SM -SN BR SCT019 OVC030 M01/M01 A2997

More Conditions Fewer Conditions

10-Day Weather Forecast

Almanac

Astronomy

Nov. 26, 2014 Rise Set
Actual Time
Civil Twilight
Nautical Twilight
Astronomical Twilight
Moon
Length of Visible Light
Length of Day
Tomorrow will be .
, % of the Moon is Illuminated

Today's Extremes

State Highs State Lows

Community

WunderPhotos

Upload Photos

1,773,930 photos uploaded!

WunderBlogs® & News

Nearby

Air Quality

  Air Quality AQ Index Pollutant
Not available.

Snow Depth

Station Depth Elevation

Earthquake Activity

City Distance Mag. Time & Date
Minimum magnitude displayed is 2.5.

Coastal Water Temperatures

Place Temperature

Nearby Weather Stations